Time;durP1;ratioP1;P1;durP2;ratioP2;P2;SDS_P1;SDS_P2;PMS_P1;PMS_P2;Temp;Humidity;BMP_temperature;BMP_pressure;BME280_temperature;BME280_humidity;BME280_pressure;Samples;Min_cycle;Max_cycle;Signal;HPM_P1;HPM_P2
2021/12/03 00:00:52;;;;;;;10.53;6.30;;;0.20;99.90;;;;;;5025369;28;20212;-79
2021/12/03 00:03:19;;;;;;;9.23;5.13;;;0.30;99.90;;;;;;5040799;28;20189;-79
2021/12/03 00:05:45;;;;;;;10.17;6.20;;;0.30;99.90;;;;;;5043036;28;20190;-80
2021/12/03 00:08:11;;;;;;;10.57;6.03;;;0.40;99.90;;;;;;5021713;28;20206;-79
2021/12/03 00:10:38;;;;;;;10.07;6.00;;;0.40;99.90;;;;;;5047424;28;20206;-79
2021/12/03 00:13:05;;;;;;;8.43;5.53;;;0.40;99.90;;;;;;5030637;28;20174;-79
2021/12/03 00:15:31;;;;;;;7.63;6.43;;;0.40;99.90;;;;;;5046138;28;20284;-80
2021/12/03 00:17:57;;;;;;;8.17;5.77;;;0.50;99.90;;;;;;5037634;28;20198;-79
2021/12/03 00:20:24;;;;;;;6.40;5.70;;;0.50;99.90;;;;;;5030614;28;20531;-79
2021/12/03 00:22:55;;;;;;;7.93;5.97;;;0.40;99.90;;;;;;5043164;28;20192;-79
2021/12/03 00:25:21;;;;;;;8.13;6.17;;;0.40;99.90;;;;;;5026928;28;20185;-79
2021/12/03 00:27:46;;;;;;;10.30;5.90;;;0.40;99.90;;;;;;5035626;28;20209;-79
2021/12/03 00:30:15;;;;;;;11.07;5.93;;;0.40;99.90;;;;;;5029933;28;20178;-79
2021/12/03 00:32:41;;;;;;;8.37;5.47;;;0.40;99.90;;;;;;5038173;28;20179;-79
2021/12/03 00:35:11;;;;;;;7.40;5.67;;;0.50;99.90;;;;;;5047795;28;20241;-79
2021/12/03 00:37:39;;;;;;;7.97;5.87;;;0.50;99.90;;;;;;5032764;28;20198;-78
2021/12/03 00:40:07;;;;;;;6.23;5.30;;;0.50;99.90;;;;;;5034998;28;20183;-80
2021/12/03 00:42:33;;;;;;;8.47;6.03;;;0.40;99.90;;;;;;5022408;28;20210;-80
2021/12/03 00:44:59;;;;;;;8.67;6.03;;;0.50;99.90;;;;;;5017714;28;20178;-79
2021/12/03 00:47:25;;;;;;;10.47;6.47;;;0.40;99.90;;;;;;5015502;28;20591;-79
2021/12/03 00:49:51;;;;;;;9.47;5.90;;;0.40;99.90;;;;;;5018751;28;20193;-79
2021/12/03 00:52:17;;;;;;;6.80;5.23;;;0.40;99.90;;;;;;5001478;28;20610;-80
2021/12/03 00:54:43;;;;;;;9.27;5.47;;;0.40;99.90;;;;;;5013122;28;20237;-80
2021/12/03 00:57:11;;;;;;;6.37;4.73;;;0.40;99.90;;;;;;5029343;28;20419;-80
2021/12/03 00:59:40;;;;;;;7.40;4.63;;;0.40;99.90;;;;;;5027358;28;20190;-80
2021/12/03 01:02:06;;;;;;;9.97;5.30;;;0.40;99.90;;;;;;5011797;28;20222;-81
2021/12/03 01:04:32;;;;;;;9.23;5.43;;;0.40;99.90;;;;;;5010918;28;20183;-80
2021/12/03 01:06:58;;;;;;;7.43;5.10;;;0.40;99.90;;;;;;5008306;28;20666;-81
2021/12/03 01:09:24;;;;;;;7.07;4.70;;;0.40;99.90;;;;;;5031262;28;20182;-81
2021/12/03 01:11:50;;;;;;;7.23;4.83;;;0.30;99.90;;;;;;4996775;28;20345;-80
2021/12/03 01:14:17;;;;;;;6.57;4.40;;;0.30;99.90;;;;;;5004659;28;20215;-81
2021/12/03 01:16:43;;;;;;;8.53;4.53;;;0.20;99.90;;;;;;5006918;28;20190;-81
2021/12/03 01:19:09;;;;;;;6.27;4.93;;;0.30;99.90;;;;;;5014952;28;20237;-81
2021/12/03 01:21:35;;;;;;;6.93;4.87;;;0.20;99.90;;;;;;5018522;28;20193;-81
2021/12/03 01:24:00;;;;;;;6.90;4.80;;;0.20;99.90;;;;;;5013074;28;20190;-80
2021/12/03 01:26:26;;;;;;;10.27;5.53;;;0.30;99.90;;;;;;5007122;28;20179;-81
2021/12/03 01:28:52;;;;;;;6.57;4.57;;;0.30;99.90;;;;;;5016031;28;20213;-81
2021/12/03 01:31:19;;;;;;;6.00;4.60;;;0.30;99.90;;;;;;5008862;28;20202;-81
2021/12/03 01:33:46;;;;;;;9.57;6.00;;;0.40;99.90;;;;;;5003778;28;20332;-81
2021/12/03 01:36:13;;;;;;;8.43;5.53;;;0.40;99.90;;;;;;5010983;28;20209;-81
2021/12/03 01:38:39;;;;;;;7.90;5.80;;;0.40;99.90;;;;;;5009458;28;20191;-81
2021/12/03 01:41:05;;;;;;;8.07;6.43;;;0.30;99.90;;;;;;4996434;28;20266;-81
2021/12/03 01:43:31;;;;;;;8.17;5.77;;;0.40;99.90;;;;;;5030913;28;20175;-80
2021/12/03 01:46:00;;;;;;;8.80;6.73;;;0.40;99.90;;;;;;5001954;28;20226;-81
2021/12/03 01:48:26;;;;;;;9.23;6.30;;;0.40;99.90;;;;;;5002606;28;20419;-80
2021/12/03 01:50:53;;;;;;;9.37;5.90;;;0.30;99.90;;;;;;5012458;28;20199;-80
2021/12/03 01:53:24;;;;;;;9.03;6.73;;;0.30;99.90;;;;;;5013175;28;20221;-80
2021/12/03 01:55:52;;;;;;;8.87;6.40;;;0.30;99.90;;;;;;5018202;28;20195;-80
2021/12/03 01:58:17;;;;;;;8.90;6.83;;;0.20;99.90;;;;;;5018234;28;20195;-80
2021/12/03 02:00:53;;;;;;;9.70;7.00;;;0.20;99.90;;;;;;5007594;28;20186;-80
2021/12/03 02:03:25;;;;;;;12.63;6.77;;;0.10;99.90;;;;;;5016745;28;20182;-79
2021/12/03 02:05:53;;;;;;;14.07;6.47;;;0.20;99.90;;;;;;5005169;28;20201;-79
2021/12/03 02:08:18;;;;;;;10.47;6.90;;;0.20;99.90;;;;;;5015642;28;20199;-79
2021/12/03 02:10:45;;;;;;;9.70;6.53;;;0.10;99.90;;;;;;4999602;28;20311;-79
2021/12/03 02:13:12;;;;;;;10.63;7.33;;;0.10;99.90;;;;;;5014973;28;20210;-79
2021/12/03 02:15:40;;;;;;;10.23;7.10;;;0.10;99.90;;;;;;5016835;28;20190;-80
2021/12/03 02:18:07;;;;;;;11.87;7.23;;;0.10;99.90;;;;;;5014011;28;20542;-80
2021/12/03 02:20:33;;;;;;;8.43;6.03;;;0.10;99.90;;;;;;4993832;28;20626;-79
2021/12/03 02:23:02;;;;;;;8.90;6.20;;;0.10;99.90;;;;;;5031132;28;20177;-80
2021/12/03 02:25:28;;;;;;;9.57;6.50;;;0.20;99.90;;;;;;5036381;28;20860;-80
2021/12/03 02:27:56;;;;;;;11.47;7.20;;;0.10;99.90;;;;;;5016509;28;20195;-79
2021/12/03 02:30:23;;;;;;;7.67;6.27;;;0.00;99.90;;;;;;5008807;28;20206;-80
2021/12/03 02:32:51;;;;;;;10.13;7.00;;;0.10;99.90;;;;;;5011444;28;20543;-79
2021/12/03 02:35:18;;;;;;;9.00;6.40;;;0.10;99.90;;;;;;5010646;28;20615;-80
2021/12/03 02:37:44;;;;;;;10.17;6.70;;;0.00;99.90;;;;;;4997557;28;20195;-80
2021/12/03 02:40:10;;;;;;;8.17;6.40;;;0.00;99.90;;;;;;4996188;28;20183;-80
2021/12/03 02:42:38;;;;;;;8.70;6.57;;;0.00;99.90;;;;;;5010885;28;20322;-80
2021/12/03 02:45:05;;;;;;;8.87;6.57;;;0.10;99.90;;;;;;5006812;28;20181;-80
2021/12/03 02:47:31;;;;;;;9.93;6.90;;;0.10;99.90;;;;;;5017490;28;20206;-79
2021/12/03 02:49:56;;;;;;;9.93;6.27;;;0.20;99.90;;;;;;5022873;28;20201;-79
2021/12/03 02:52:26;;;;;;;8.67;6.40;;;0.10;99.90;;;;;;5020942;28;20276;-79
2021/12/03 02:54:52;;;;;;;6.87;5.80;;;0.20;99.90;;;;;;5012004;28;20186;-80
2021/12/03 02:57:17;;;;;;;8.90;5.70;;;0.30;99.90;;;;;;5005767;28;20248;-80
2021/12/03 02:59:43;;;;;;;9.90;5.90;;;0.30;99.90;;;;;;4990438;28;20177;-79
2021/12/03 03:02:09;;;;;;;8.97;5.70;;;0.20;99.90;;;;;;5017922;28;20189;-79
2021/12/03 03:04:35;;;;;;;10.60;6.37;;;0.20;99.90;;;;;;5016752;28;20178;-79
2021/12/03 03:07:01;;;;;;;7.73;5.63;;;0.30;99.90;;;;;;5023636;28;20171;-79
2021/12/03 03:09:27;;;;;;;9.53;5.77;;;0.20;99.90;;;;;;5023773;28;20213;-80
2021/12/03 03:11:53;;;;;;;7.73;5.50;;;0.30;99.90;;;;;;5022079;28;20255;-79
2021/12/03 03:14:19;;;;;;;9.30;6.00;;;0.40;99.90;;;;;;5022243;28;20240;-78
2021/12/03 03:16:46;;;;;;;6.60;5.90;;;0.50;99.90;;;;;;5024132;28;20172;-79
2021/12/03 03:19:15;;;;;;;12.83;5.93;;;0.50;99.90;;;;;;5002783;28;20258;-79
2021/12/03 03:21:41;;;;;;;7.57;6.20;;;0.40;99.90;;;;;;5003513;28;20175;-78
2021/12/03 03:24:09;;;;;;;14.70;6.40;;;0.50;99.90;;;;;;5016626;28;20182;-80
2021/12/03 03:26:39;;;;;;;8.17;5.90;;;0.40;99.90;;;;;;5008497;28;20194;-79
2021/12/03 03:29:07;;;;;;;10.27;6.00;;;0.50;99.90;;;;;;5025585;28;20210;-79
2021/12/03 03:31:34;;;;;;;7.20;6.33;;;0.50;99.90;;;;;;5030837;28;20205;-80
2021/12/03 03:34:01;;;;;;;7.63;5.93;;;0.50;99.90;;;;;;5014948;28;20217;-80
2021/12/03 03:36:26;;;;;;;8.60;6.03;;;0.50;99.90;;;;;;5016926;28;20196;-79
2021/12/03 03:38:52;;;;;;;8.97;6.33;;;0.40;99.90;;;;;;5016216;28;20194;-79
2021/12/03 03:41:18;;;;;;;12.40;6.20;;;0.30;99.90;;;;;;5032222;28;20166;-80
2021/12/03 03:43:44;;;;;;;8.63;6.53;;;0.30;99.90;;;;;;5021507;28;20199;-80
2021/12/03 03:46:10;;;;;;;13.53;6.90;;;0.40;99.90;;;;;;5036477;28;20249;-79
2021/12/03 03:48:36;;;;;;;11.23;6.97;;;0.40;99.90;;;;;;5035145;28;20197;-79
2021/12/03 03:51:04;;;;;;;7.73;6.33;;;0.30;99.90;;;;;;5017184;28;20207;-80
2021/12/03 03:53:30;;;;;;;8.00;7.00;;;0.40;99.90;;;;;;5008085;28;20201;-81
2021/12/03 03:55:56;;;;;;;10.10;6.83;;;0.40;99.90;;;;;;5030624;28;20174;-81
2021/12/03 03:58:22;;;;;;;11.07;6.90;;;0.50;99.90;;;;;;5002086;28;20213;-80
2021/12/03 04:00:47;;;;;;;7.57;5.70;;;0.30;99.90;;;;;;5002831;28;20193;-79
2021/12/03 04:03:14;;;;;;;12.40;6.93;;;0.50;99.90;;;;;;5001269;28;20253;-80
2021/12/03 04:05:40;;;;;;;11.53;6.47;;;0.40;99.90;;;;;;5001705;28;20224;-80
2021/12/03 04:08:07;;;;;;;11.00;7.00;;;0.40;99.90;;;;;;5001297;28;20246;-79
2021/12/03 04:10:33;;;;;;;10.67;7.00;;;0.40;99.90;;;;;;5001718;28;20183;-79
2021/12/03 04:12:59;;;;;;;8.13;6.20;;;0.50;99.90;;;;;;5004331;28;20181;-79
2021/12/03 04:15:25;;;;;;;9.43;6.70;;;0.50;99.90;;;;;;5004261;28;20198;-79
2021/12/03 04:17:51;;;;;;;9.30;6.27;;;0.50;99.90;;;;;;5004010;28;20226;-82
2021/12/03 04:20:19;;;;;;;9.43;6.23;;;0.40;99.90;;;;;;4996802;28;20178;-80
2021/12/03 04:22:45;;;;;;;10.30;6.50;;;0.40;99.90;;;;;;5004335;28;20195;-80
2021/12/03 04:25:17;;;;;;;8.50;6.53;;;0.40;99.90;;;;;;5019906;28;20634;-79
2021/12/03 04:27:44;;;;;;;10.23;6.60;;;0.50;99.90;;;;;;5004025;28;20211;-79
2021/12/03 04:30:15;;;;;;;10.40;5.97;;;0.50;99.90;;;;;;5003171;28;20187;-79
2021/12/03 04:32:40;;;;;;;10.83;6.17;;;0.50;99.90;;;;;;5004166;28;20218;-79
2021/12/03 04:35:08;;;;;;;11.50;6.43;;;0.60;99.90;;;;;;5001782;28;20197;-79
2021/12/03 04:37:33;;;;;;;11.10;6.20;;;0.50;99.90;;;;;;4992073;28;20206;-79
2021/12/03 04:39:59;;;;;;;7.60;5.43;;;0.50;99.90;;;;;;4984257;28;20187;-80
2021/12/03 04:42:24;;;;;;;7.83;5.20;;;0.50;99.90;;;;;;5002710;28;20277;-80
2021/12/03 04:44:50;;;;;;;10.27;5.93;;;0.60;99.90;;;;;;5020390;28;20191;-80
2021/12/03 04:47:16;;;;;;;7.43;5.87;;;0.50;99.90;;;;;;5021387;28;20294;-79
2021/12/03 04:49:42;;;;;;;8.77;6.20;;;0.50;99.90;;;;;;5016865;28;20185;-81
2021/12/03 04:52:07;;;;;;;7.77;5.87;;;0.50;99.90;;;;;;5007441;28;20214;-80
2021/12/03 04:54:33;;;;;;;11.60;5.50;;;0.60;99.90;;;;;;5009397;28;20178;-80
2021/12/03 04:56:59;;;;;;;8.30;5.83;;;0.60;99.90;;;;;;5039033;28;20182;-80
2021/12/03 04:59:25;;;;;;;7.60;5.30;;;0.70;99.90;;;;;;5012009;28;20182;-80
2021/12/03 05:01:54;;;;;;;8.20;5.43;;;0.60;99.90;;;;;;5025906;28;20182;-80
2021/12/03 05:04:20;;;;;;;8.77;5.80;;;0.70;99.90;;;;;;5029098;28;20197;-80
2021/12/03 05:07:04;;;;;;;7.53;5.77;;;0.70;99.90;;;;;;5007477;28;20171;-80
2021/12/03 05:09:30;;;;;;;9.17;5.67;;;0.60;99.90;;;;;;5008763;28;20266;-80
2021/12/03 05:11:56;;;;;;;8.70;5.63;;;0.60;99.90;;;;;;4986093;28;20207;-80
2021/12/03 05:14:21;;;;;;;10.17;6.63;;;0.60;99.90;;;;;;4982897;28;20234;-80
2021/12/03 05:16:48;;;;;;;10.33;6.40;;;0.70;99.90;;;;;;4986728;28;20181;-80
2021/12/03 05:19:16;;;;;;;8.33;5.80;;;0.70;99.90;;;;;;5020866;28;20201;-80
2021/12/03 05:21:42;;;;;;;12.80;6.53;;;0.80;99.90;;;;;;5019847;28;20178;-80
2021/12/03 05:24:09;;;;;;;12.47;7.83;;;0.90;99.90;;;;;;5002368;28;20174;-80
2021/12/03 05:26:36;;;;;;;10.90;6.47;;;0.90;99.90;;;;;;5002663;28;20204;-80
2021/12/03 05:29:03;;;;;;;9.83;5.80;;;0.90;99.90;;;;;;5001275;28;20264;-80
2021/12/03 05:31:28;;;;;;;6.87;5.40;;;1.00;99.90;;;;;;5018969;28;20622;-80
2021/12/03 05:33:54;;;;;;;7.63;5.60;;;1.00;99.90;;;;;;4999595;28;20407;-80
2021/12/03 05:36:20;;;;;;;8.77;5.53;;;0.80;99.90;;;;;;5000977;28;20190;-80
2021/12/03 05:38:50;;;;;;;9.17;5.97;;;0.70;99.90;;;;;;5001344;28;20201;-80
2021/12/03 05:41:15;;;;;;;9.40;5.83;;;0.70;99.90;;;;;;5015154;28;20186;-80
2021/12/03 05:43:41;;;;;;;8.43;6.13;;;0.70;99.90;;;;;;4982417;28;20274;-80
2021/12/03 05:46:07;;;;;;;12.43;6.10;;;0.60;99.90;;;;;;4993639;28;20194;-80
2021/12/03 05:48:33;;;;;;;9.87;6.53;;;0.60;99.90;;;;;;5004366;28;20245;-80
2021/12/03 05:50:59;;;;;;;7.27;6.30;;;0.50;99.90;;;;;;4999266;28;20746;-80
2021/12/03 05:53:25;;;;;;;8.43;6.43;;;0.60;99.90;;;;;;4994618;28;20182;-80
2021/12/03 05:55:51;;;;;;;10.10;6.73;;;0.60;99.90;;;;;;5028773;28;20229;-80
2021/12/03 05:58:18;;;;;;;8.90;6.17;;;0.50;99.90;;;;;;5019506;28;20296;-80
2021/12/03 06:00:44;;;;;;;9.27;6.63;;;0.60;99.90;;;;;;5027597;28;20183;-80
2021/12/03 06:03:10;;;;;;;8.70;6.27;;;0.60;99.90;;;;;;4999848;28;20240;-80
2021/12/03 06:05:36;;;;;;;8.20;6.17;;;0.70;99.90;;;;;;5001944;28;20286;-80
2021/12/03 06:08:03;;;;;;;12.63;6.90;;;0.70;99.90;;;;;;4986156;28;20273;-80
2021/12/03 06:10:29;;;;;;;8.97;6.03;;;0.70;99.90;;;;;;4984657;28;20179;-80
2021/12/03 06:12:55;;;;;;;8.87;6.37;;;0.70;99.90;;;;;;4982419;28;20179;-80
2021/12/03 06:15:21;;;;;;;10.20;6.30;;;0.70;99.90;;;;;;4981417;28;20191;-81
2021/12/03 06:17:47;;;;;;;10.67;7.03;;;0.70;99.90;;;;;;4994692;28;20210;-81
2021/12/03 06:20:16;;;;;;;9.27;6.67;;;0.70;99.90;;;;;;4999028;28;20183;-81
2021/12/03 06:22:42;;;;;;;8.20;6.20;;;0.70;99.90;;;;;;5015158;28;20254;-81
2021/12/03 06:25:10;;;;;;;10.97;6.33;;;0.70;99.90;;;;;;5027801;28;20263;-80
2021/12/03 06:27:38;;;;;;;7.37;6.00;;;0.70;99.90;;;;;;5010183;28;20289;-81
2021/12/03 06:30:07;;;;;;;9.37;6.37;;;0.70;99.90;;;;;;4995083;28;20210;-80
2021/12/03 06:32:33;;;;;;;8.80;7.00;;;0.70;99.90;;;;;;4995270;28;20206;-81
2021/12/03 06:34:58;;;;;;;9.33;6.90;;;0.80;99.90;;;;;;4996498;28;20176;-80
2021/12/03 06:37:24;;;;;;;7.80;6.57;;;0.80;99.90;;;;;;5015612;28;20208;-80
2021/12/03 06:39:50;;;;;;;8.53;6.50;;;0.80;99.90;;;;;;5015852;28;20189;-81
2021/12/03 06:42:15;;;;;;;12.27;7.00;;;0.80;99.90;;;;;;5015615;28;20218;-81
2021/12/03 06:44:41;;;;;;;7.73;6.70;;;0.80;99.90;;;;;;4999774;28;20182;-81
2021/12/03 06:47:07;;;;;;;11.13;6.80;;;0.70;99.90;;;;;;4999645;28;20187;-80
2021/12/03 06:49:34;;;;;;;8.10;5.93;;;0.70;99.90;;;;;;4999652;28;20218;-81
2021/12/03 06:52:04;;;;;;;9.00;7.17;;;0.80;99.90;;;;;;4980301;28;20203;-81
2021/12/03 06:54:32;;;;;;;11.70;7.10;;;0.80;99.90;;;;;;5003927;28;20174;-79
2021/12/03 06:57:00;;;;;;;9.27;6.47;;;0.80;99.90;;;;;;5005022;28;20183;-79
2021/12/03 06:59:26;;;;;;;9.67;7.00;;;0.80;99.90;;;;;;4980389;28;20279;-80
2021/12/03 07:01:52;;;;;;;8.17;7.23;;;0.70;99.90;;;;;;4981061;28;20207;-80
2021/12/03 07:04:18;;;;;;;13.10;7.23;;;0.80;99.90;;;;;;4996514;28;20179;-80
2021/12/03 07:06:44;;;;;;;11.77;7.70;;;0.80;99.90;;;;;;4985908;28;20190;-80
2021/12/03 07:09:10;;;;;;;10.37;7.00;;;0.80;99.90;;;;;;5015351;28;20199;-80
2021/12/03 07:11:36;;;;;;;8.30;7.07;;;0.80;99.90;;;;;;4995123;28;20544;-80
2021/12/03 07:14:02;;;;;;;7.80;7.10;;;0.90;99.90;;;;;;4980840;28;20183;-79
2021/12/03 07:16:28;;;;;;;8.53;7.00;;;1.00;99.90;;;;;;4978621;28;20175;-80
2021/12/03 07:18:54;;;;;;;9.57;7.23;;;0.90;99.90;;;;;;4978914;28;20221;-80
2021/12/03 07:21:20;;;;;;;15.00;7.37;;;0.90;99.90;;;;;;4979846;28;20206;-80
2021/12/03 07:23:47;;;;;;;10.37;7.87;;;0.80;99.90;;;;;;4980383;28;20206;-80
2021/12/03 07:26:13;;;;;;;9.03;7.10;;;0.90;99.90;;;;;;4979506;28;20250;-79
2021/12/03 07:28:39;;;;;;;10.00;8.07;;;0.90;99.90;;;;;;4979356;28;20205;-80
2021/12/03 07:31:05;;;;;;;10.50;7.43;;;0.90;99.90;;;;;;4980243;28;20265;-80
2021/12/03 07:33:31;;;;;;;8.57;7.20;;;1.00;99.90;;;;;;4979718;28;20183;-80
2021/12/03 07:35:58;;;;;;;7.43;6.73;;;0.90;99.90;;;;;;4981050;28;20186;-80
2021/12/03 07:38:26;;;;;;;8.87;6.63;;;0.90;99.90;;;;;;5008190;28;20293;-79
2021/12/03 07:40:52;;;;;;;10.73;7.37;;;0.90;99.90;;;;;;4980101;28;20190;-80
2021/12/03 07:43:18;;;;;;;11.13;7.43;;;1.00;99.90;;;;;;4991723;28;20179;-82
2021/12/03 07:45:46;;;;;;;10.27;6.80;;;0.90;99.90;;;;;;5000146;28;20185;-80
2021/12/03 07:48:11;;;;;;;8.27;6.77;;;0.90;99.90;;;;;;5002537;28;20214;-80
2021/12/03 07:50:39;;;;;;;8.10;6.70;;;1.00;99.90;;;;;;5002738;28;20274;-79
2021/12/03 07:53:06;;;;;;;7.70;6.80;;;0.90;99.90;;;;;;4992107;28;20177;-80
2021/12/03 07:55:33;;;;;;;10.80;7.90;;;1.00;99.90;;;;;;5031836;28;20245;-80
2021/12/03 07:57:59;;;;;;;9.27;6.80;;;0.90;99.90;;;;;;5041003;28;20260;-80
2021/12/03 08:00:24;;;;;;;12.17;7.27;;;0.90;99.90;;;;;;5024920;28;20178;-80
2021/12/03 08:02:51;;;;;;;10.60;7.30;;;0.90;99.90;;;;;;5040056;28;20182;-80
2021/12/03 08:05:17;;;;;;;8.57;7.00;;;0.90;99.90;;;;;;5039660;28;20178;-80
2021/12/03 08:07:46;;;;;;;8.07;6.87;;;1.00;99.90;;;;;;5030587;28;20293;-80
2021/12/03 08:10:13;;;;;;;10.30;6.63;;;1.00;99.90;;;;;;5019422;28;20186;-80
2021/12/03 08:12:44;;;;;;;10.03;7.40;;;1.00;99.90;;;;;;5012393;28;20304;-78
2021/12/03 08:15:13;;;;;;;7.03;6.23;;;1.10;99.90;;;;;;5012745;28;20270;-80
2021/12/03 08:17:40;;;;;;;9.23;5.97;;;1.10;99.90;;;;;;5030551;28;20216;-80
2021/12/03 08:20:09;;;;;;;8.77;7.17;;;1.00;99.90;;;;;;5018705;28;20206;-80
2021/12/03 08:22:35;;;;;;;8.67;7.13;;;1.00;99.90;;;;;;5016140;28;20179;-80
2021/12/03 08:25:02;;;;;;;10.93;7.60;;;1.00;99.90;;;;;;5013209;28;20185;-80
2021/12/03 08:27:28;;;;;;;8.90;7.87;;;1.00;99.90;;;;;;5008293;28;20222;-81
2021/12/03 08:29:54;;;;;;;8.77;7.83;;;1.00;99.90;;;;;;4982923;28;20624;-80
2021/12/03 08:32:19;;;;;;;8.97;7.67;;;1.00;99.90;;;;;;4993570;28;20214;-79
2021/12/03 08:34:45;;;;;;;9.83;8.23;;;1.00;99.90;;;;;;5000052;28;20263;-80
2021/12/03 08:37:11;;;;;;;9.93;8.83;;;0.90;99.90;;;;;;5000518;28;20290;-80
2021/12/03 08:39:37;;;;;;;11.93;7.70;;;1.00;99.90;;;;;;4983319;28;20766;-80
2021/12/03 08:42:05;;;;;;;12.67;9.13;;;1.00;99.90;;;;;;4986867;28;20245;-80
2021/12/03 08:44:30;;;;;;;11.73;9.07;;;1.00;99.90;;;;;;5018451;28;20191;-79
2021/12/03 08:46:59;;;;;;;11.50;9.90;;;1.00;99.90;;;;;;5031139;28;20185;-81
2021/12/03 08:49:30;;;;;;;12.00;9.50;;;1.00;99.90;;;;;;5010836;28;20182;-79
2021/12/03 08:54:49;;;;;;;14.07;10.60;;;1.00;99.90;;;;;;5040770;28;20586;-80
2021/12/03 08:57:35;;;;;;;14.70;11.17;;;1.00;99.90;;;;;;5008398;28;20222;-80
2021/12/03 09:00:19;;;;;;;13.03;10.80;;;1.00;99.90;;;;;;5028969;28;20196;-81
2021/12/03 09:02:49;;;;;;;14.57;12.10;;;1.10;99.90;;;;;;5019651;28;20178;-79
2021/12/03 09:05:15;;;;;;;15.70;12.33;;;1.00;99.90;;;;;;5020532;28;20662;-81
2021/12/03 09:07:41;;;;;;;12.13;9.43;;;1.10;99.90;;;;;;5003598;28;20268;-80
2021/12/03 09:10:11;;;;;;;16.37;13.00;;;1.20;99.90;;;;;;5024970;28;20179;-80
2021/12/03 09:12:37;;;;;;;17.17;14.03;;;1.10;99.90;;;;;;5009497;28;20202;-80
2021/12/03 09:15:15;;;;;;;17.50;13.57;;;1.20;99.90;;;;;;5020547;28;20190;-81
2021/12/03 09:18:01;;;;;;;16.57;13.30;;;1.20;99.90;;;;;;5010637;28;20202;-81
2021/12/03 09:23:05;;;;;;;14.97;11.37;;;1.30;99.90;;;;;;5043924;28;20171;-81
2021/12/03 09:25:38;;;;;;;21.23;14.93;;;1.40;99.90;;;;;;5010405;28;20174;-80
2021/12/03 09:28:12;;;;;;;22.67;14.13;;;1.40;99.90;;;;;;5006415;28;20195;-79
2021/12/03 09:30:41;;;;;;;19.97;13.73;;;1.40;99.90;;;;;;5031043;28;20194;-80
2021/12/03 09:33:11;;;;;;;21.67;14.37;;;1.50;99.90;;;;;;5027627;28;20192;-81
2021/12/03 09:35:44;;;;;;;27.37;15.17;;;1.40;99.90;;;;;;5032665;28;20254;-81
2021/12/03 09:38:10;;;;;;;20.73;14.13;;;1.40;99.90;;;;;;5011885;28;20224;-80
2021/12/03 09:40:36;;;;;;;19.33;14.57;;;1.30;99.90;;;;;;5016676;28;20204;-80
2021/12/03 09:43:04;;;;;;;21.90;14.80;;;1.30;99.90;;;;;;5021726;28;20181;-80
2021/12/03 09:45:30;;;;;;;20.97;15.57;;;1.30;99.90;;;;;;5027085;28;20198;-80
2021/12/03 09:47:59;;;;;;;23.30;15.17;;;1.40;99.90;;;;;;5015050;28;20196;-80
2021/12/03 09:50:25;;;;;;;18.60;12.67;;;1.50;99.90;;;;;;5027799;28;20195;-80
2021/12/03 09:55:22;;;;;;;20.93;14.47;;;1.40;99.90;;;;;;5042786;28;20791;-81
2021/12/03 09:58:11;;;;;;;23.07;14.80;;;1.50;99.90;;;;;;5013199;28;20646;-80
2021/12/03 10:00:54;;;;;;;22.03;14.57;;;1.60;99.90;;;;;;5006980;28;20261;-81
2021/12/03 10:14:43;;;;;;;22.33;13.47;;;1.60;99.90;;;;;;5045663;28;20236;-80
2021/12/03 10:20:47;;;;;;;22.93;13.43;;;1.70;99.90;;;;;;5032586;28;20281;-80
2021/12/03 10:37:40;;;;;;;23.97;15.47;;;1.80;99.90;;;;;;5026461;28;20554;-81
2021/12/03 10:54:56;;;;;;;25.77;16.40;;;1.70;99.90;;;;;;5041811;28;20182;-81
2021/12/03 11:11:30;;;;;;;28.80;16.77;;;1.90;99.90;;;;;;5040383;28;20202;-81
2021/12/03 11:28:09;;;;;;;33.90;19.07;;;1.90;99.90;;;;;;5043283;28;20191;-80
2021/12/03 12:19:08;;;;;;;36.20;19.57;;;2.40;99.90;;;;;;5027696;28;20195;-78
2021/12/03 12:25:19;;;;;;;34.83;18.13;;;2.40;99.90;;;;;;5044002;28;20274;-80
2021/12/03 13:28:42;;;;;;;33.57;18.43;;;3.20;99.90;;;;;;5037963;28;20205;-80
2021/12/03 13:57:23;;;;;;;30.67;16.93;;;3.00;99.90;;;;;;5023262;28;20186;-81
2021/12/03 14:14:10;;;;;;;26.30;16.40;;;3.10;99.90;;;;;;5041146;28;20202;-81
2021/12/03 14:18:15;;;;;;;29.67;16.67;;;3.10;99.90;;;;;;5029975;28;20174;-81
2021/12/03 14:27:05;;;;;;;28.83;15.77;;;2.90;99.90;;;;;;5045604;28;20206;-81
2021/12/03 14:34:52;;;;;;;31.73;15.60;;;2.30;99.90;;;;;;5046716;28;20245;-82
2021/12/03 14:41:42;;;;;;;30.53;15.60;;;2.10;99.90;;;;;;5048963;28;20182;-83
2021/12/03 14:55:26;;;;;;;27.13;15.97;;;2.20;99.90;;;;;;5028014;28;20178;-82
2021/12/03 14:58:07;;;;;;;31.83;15.87;;;2.10;99.90;;;;;;5014137;28;20194;-82
2021/12/03 15:00:47;;;;;;;30.47;15.87;;;2.10;99.90;;;;;;5008607;28;20202;-81
2021/12/03 15:03:33;;;;;;;29.87;17.20;;;2.10;99.90;;;;;;5007326;28;20190;-82
2021/12/03 15:06:27;;;;;;;26.23;15.30;;;2.00;99.90;;;;;;5027837;28;20178;-81
2021/12/03 15:08:57;;;;;;;24.70;14.90;;;2.10;99.90;;;;;;5005397;28;20198;-81
2021/12/03 15:33:09;;;;;;;19.53;12.90;;;1.90;99.90;;;;;;5031670;28;20221;-81
2021/12/03 15:35:53;;;;;;;22.30;13.33;;;1.90;99.90;;;;;;5024251;28;20200;-82
2021/12/03 15:38:37;;;;;;;19.93;12.17;;;1.70;99.90;;;;;;5021452;28;20602;-81
2021/12/03 16:10:27;;;;;;;20.07;11.93;;;1.70;99.90;;;;;;5048004;28;20170;-82
2021/12/03 16:45:28;;;;;;;13.73;10.50;;;1.80;99.90;;;;;;5052900;28;20240;-82
2021/12/03 16:49:27;;;;;;;18.17;11.40;;;1.80;99.90;;;;;;5030442;28;20201;-81
2021/12/03 16:53:30;;;;;;;17.27;11.40;;;1.90;99.90;;;;;;5048501;28;20183;-82
2021/12/03 16:58:32;;;;;;;14.63;11.70;;;1.90;99.90;;;;;;5039382;28;20214;-82
2021/12/03 17:01:06;;;;;;;16.17;11.80;;;1.80;99.90;;;;;;5047654;28;20174;-82
2021/12/03 17:03:57;;;;;;;16.37;11.53;;;1.80;99.90;;;;;;5026743;28;20171;-83
2021/12/03 17:09:18;;;;;;;15.87;11.97;;;1.90;99.90;;;;;;5032215;28;20313;-82
2021/12/03 17:11:57;;;;;;;19.40;12.80;;;1.80;99.90;;;;;;5032181;28;20198;-85
2021/12/03 17:26:14;;;;;;;17.13;12.47;;;1.80;99.90;;;;;;5045838;28;20205;-82
2021/12/03 17:54:36;;;;;;;15.03;10.63;;;1.90;99.90;;;;;;5041829;28;20183;-83
2021/12/03 17:59:49;;;;;;;12.00;10.60;;;2.10;99.90;;;;;;5043959;28;20189;-82
2021/12/03 18:02:39;;;;;;;12.27;9.67;;;2.20;99.90;;;;;;5033249;28;20176;-83
2021/12/03 18:05:22;;;;;;;13.93;9.63;;;2.10;99.90;;;;;;5050926;28;20301;-82
2021/12/03 18:13:30;;;;;;;14.83;11.47;;;2.10;99.90;;;;;;5042745;28;20220;-82
2021/12/03 18:43:44;;;;;;;17.80;14.47;;;2.20;99.90;;;;;;5042358;28;20242;-82
2021/12/03 18:47:24;;;;;;;14.90;13.33;;;2.30;99.90;;;;;;5004293;28;20177;-82
2021/12/03 18:49:23;;;;;;;16.37;13.33;;;2.40;99.90;;;;;;5032370;28;20277;-81
2021/12/03 18:54:35;;;;;;;15.83;14.10;;;2.40;99.90;;;;;;5046786;28;20681;-82
2021/12/03 18:57:10;;;;;;;17.93;14.10;;;2.40;99.90;;;;;;5030446;28;20203;-82
2021/12/03 18:59:50;;;;;;;16.60;14.43;;;2.40;99.90;;;;;;5009288;28;20170;-81
2021/12/03 19:02:16;;;;;;;18.33;14.27;;;2.40;99.90;;;;;;5035716;28;20178;-81
2021/12/03 19:04:50;;;;;;;17.07;14.27;;;2.50;99.90;;;;;;5031862;28;20182;-81
2021/12/03 19:07:21;;;;;;;16.27;14.57;;;2.40;99.90;;;;;;5027236;28;20193;-81
2021/12/03 19:09:51;;;;;;;18.27;15.00;;;2.50;99.90;;;;;;5024738;28;20174;-81
2021/12/03 19:12:25;;;;;;;16.80;15.03;;;2.50;99.90;;;;;;5015729;28;20195;-83
2021/12/03 19:15:01;;;;;;;21.43;17.00;;;2.50;99.90;;;;;;5028790;28;20282;-80
2021/12/03 19:17:35;;;;;;;20.00;16.57;;;2.50;99.90;;;;;;5009909;28;20198;-80
2021/12/03 19:20:01;;;;;;;18.93;14.90;;;2.50;99.90;;;;;;5027328;28;20186;-81
2021/12/03 19:22:27;;;;;;;20.20;15.50;;;2.50;99.90;;;;;;5025072;28;20187;-81
2021/12/03 19:24:57;;;;;;;17.73;15.60;;;2.50;99.90;;;;;;5024682;28;20178;-82
2021/12/03 19:27:27;;;;;;;18.00;14.97;;;2.50;99.90;;;;;;5026115;28;20224;-81
2021/12/03 19:29:55;;;;;;;17.00;14.70;;;2.60;99.90;;;;;;5024896;28;20178;-80
2021/12/03 19:32:24;;;;;;;18.03;14.30;;;2.60;99.90;;;;;;5010738;28;20221;-82
2021/12/03 19:34:50;;;;;;;19.83;15.33;;;2.70;99.90;;;;;;5030734;28;20460;-82
2021/12/03 19:37:16;;;;;;;18.17;15.37;;;2.70;99.90;;;;;;5031877;28;20680;-82
2021/12/03 19:39:42;;;;;;;17.67;13.93;;;2.70;99.90;;;;;;5006933;28;20186;-80
2021/12/03 19:42:13;;;;;;;18.17;15.43;;;2.70;99.90;;;;;;5009899;28;20193;-81
2021/12/03 19:47:13;;;;;;;23.70;19.80;;;2.80;99.90;;;;;;5048290;28;20204;-81
2021/12/03 19:52:21;;;;;;;18.73;15.50;;;2.80;99.90;;;;;;5045513;28;20205;-81
2021/12/03 19:54:48;;;;;;;18.47;16.07;;;2.90;99.90;;;;;;5012073;28;20208;-81
2021/12/03 19:57:14;;;;;;;21.90;16.47;;;2.80;99.90;;;;;;5012451;28;20183;-83
2021/12/03 19:59:39;;;;;;;22.37;17.90;;;2.70;99.90;;;;;;5014774;28;20224;-82
2021/12/03 20:02:05;;;;;;;21.43;18.07;;;2.80;99.90;;;;;;5029497;28;20193;-82
2021/12/03 20:04:31;;;;;;;20.73;18.07;;;2.90;99.90;;;;;;5031888;28;20190;-80
2021/12/03 20:07:01;;;;;;;22.40;19.47;;;2.90;99.90;;;;;;5019708;28;20525;-82
2021/12/03 20:09:35;;;;;;;21.60;18.07;;;2.90;99.90;;;;;;5014105;28;20194;-81